Time;durP1;ratioP1;P1;durP2;ratioP2;P2;SDS_P1;SDS_P2;PMS_P1;PMS_P2;Temp;Humidity;BMP_temperature;BMP_pressure;BME280_temperature;BME280_humidity;BME280_pressure;Samples;Min_cycle;Max_cycle;Signal;HPM_P1;HPM_P2
2023/10/19 00:01:41;;;;;;;15.97;9.30;;;7.10;99.90;;;;;;4227566;28;20228;-77
2023/10/19 00:03:43;;;;;;;16.63;9.50;;;7.10;99.90;;;;;;4226825;28;20204;-77
2023/10/19 00:05:46;;;;;;;14.83;9.10;;;7.10;99.90;;;;;;4222993;27;20450;-77
2023/10/19 00:07:47;;;;;;;12.07;7.97;;;7.20;99.90;;;;;;4217998;28;20208;-77
2023/10/19 00:09:53;;;;;;;15.40;9.20;;;7.20;99.90;;;;;;4225608;28;20221;-77
2023/10/19 00:11:56;;;;;;;16.07;9.40;;;7.10;99.90;;;;;;4229134;28;20224;-77
2023/10/19 00:13:58;;;;;;;16.53;9.33;;;7.20;99.90;;;;;;4228596;28;20209;-78
2023/10/19 00:15:59;;;;;;;14.93;8.73;;;7.20;99.90;;;;;;4230543;27;20210;-78
2023/10/19 00:18:13;;;;;;;18.07;9.90;;;7.20;99.90;;;;;;4228307;27;20458;-78
2023/10/19 00:20:50;;;;;;;14.67;9.17;;;7.20;99.90;;;;;;4225459;28;20496;-78
2023/10/19 00:22:53;;;;;;;14.33;9.27;;;7.30;99.90;;;;;;4228427;27;20221;-78
2023/10/19 00:24:54;;;;;;;15.20;8.80;;;7.30;99.90;;;;;;4226958;28;20250;-77
2023/10/19 00:27:05;;;;;;;13.40;8.30;;;7.30;99.90;;;;;;4230697;28;20188;-79
2023/10/19 00:29:30;;;;;;;14.37;8.30;;;7.30;99.90;;;;;;4231285;28;20763;-78
2023/10/19 00:31:34;;;;;;;15.93;9.03;;;7.30;99.90;;;;;;4220669;28;20217;-77
2023/10/19 00:33:38;;;;;;;13.57;7.80;;;7.30;99.90;;;;;;4226612;28;20217;-77
2023/10/19 00:35:51;;;;;;;15.77;8.93;;;7.30;99.90;;;;;;4226191;28;20200;-77
2023/10/19 00:37:56;;;;;;;14.10;8.40;;;7.30;99.90;;;;;;4224425;28;20224;-77
2023/10/19 00:40:14;;;;;;;13.70;8.60;;;7.30;99.90;;;;;;4222581;28;20227;-77
2023/10/19 00:42:23;;;;;;;13.97;8.30;;;7.40;99.90;;;;;;4220658;28;20229;-77
2023/10/19 00:44:35;;;;;;;14.30;8.70;;;7.40;99.90;;;;;;4224268;28;20208;-77
2023/10/19 00:46:42;;;;;;;17.33;9.47;;;7.40;99.90;;;;;;4221136;28;20737;-77
2023/10/19 00:48:46;;;;;;;13.50;8.50;;;7.40;99.90;;;;;;4224591;28;20193;-77
2023/10/19 00:50:52;;;;;;;14.33;8.47;;;7.50;99.90;;;;;;4225205;28;20239;-80
2023/10/19 00:52:57;;;;;;;16.10;8.37;;;7.40;99.90;;;;;;4224680;27;20228;-79
2023/10/19 00:55:00;;;;;;;14.30;8.63;;;7.40;99.90;;;;;;4229480;27;20247;-79
2023/10/19 00:57:08;;;;;;;14.03;8.73;;;7.50;99.90;;;;;;4229543;28;20610;-80
2023/10/19 00:59:14;;;;;;;15.70;9.00;;;7.50;99.90;;;;;;4223019;28;20219;-80
2023/10/19 01:01:19;;;;;;;16.73;9.23;;;7.50;99.90;;;;;;4223300;27;20259;-79
2023/10/19 01:03:21;;;;;;;16.33;9.57;;;7.50;99.90;;;;;;4224904;28;20254;-80
2023/10/19 01:05:23;;;;;;;13.17;8.37;;;7.50;99.90;;;;;;4225678;28;20246;-79
2023/10/19 01:07:29;;;;;;;12.90;8.50;;;7.50;99.90;;;;;;4226380;28;20205;-80
2023/10/19 01:09:34;;;;;;;15.57;8.87;;;7.50;99.90;;;;;;4221116;28;20265;-80
2023/10/19 01:11:36;;;;;;;14.33;8.80;;;7.50;99.90;;;;;;4223317;28;20213;-80
2023/10/19 01:13:44;;;;;;;13.63;8.93;;;7.60;99.90;;;;;;4227014;28;20238;-80
2023/10/19 01:15:49;;;;;;;15.23;8.23;;;7.60;99.90;;;;;;4226626;28;20205;-80
2023/10/19 01:17:52;;;;;;;16.37;8.53;;;7.60;99.90;;;;;;4220445;28;20866;-80
2023/10/19 01:19:53;;;;;;;12.83;7.70;;;7.60;99.90;;;;;;4222666;28;20202;-80
2023/10/19 01:22:01;;;;;;;13.57;8.23;;;7.60;99.90;;;;;;4222393;28;20221;-80
2023/10/19 01:24:07;;;;;;;12.83;7.77;;;7.70;99.90;;;;;;4219798;28;20656;-81
2023/10/19 01:26:10;;;;;;;12.53;7.87;;;7.60;99.90;;;;;;4221917;28;20222;-80
2023/10/19 01:28:16;;;;;;;15.13;8.23;;;7.60;99.90;;;;;;4224092;27;21105;-79
2023/10/19 01:30:18;;;;;;;12.67;7.60;;;7.60;99.90;;;;;;4237816;28;20565;-79
2023/10/19 01:32:20;;;;;;;12.50;7.60;;;7.60;99.90;;;;;;4235362;28;20240;-79
2023/10/19 01:34:23;;;;;;;13.93;7.87;;;7.60;99.90;;;;;;4239119;28;20201;-79
2023/10/19 01:36:28;;;;;;;11.90;7.67;;;7.90;99.90;;;;;;4236664;28;20200;-80
2023/10/19 01:38:30;;;;;;;13.07;7.60;;;7.60;99.90;;;;;;4241046;28;20201;-80
2023/10/19 01:40:34;;;;;;;12.00;8.00;;;7.60;99.90;;;;;;4239704;27;20193;-80
2023/10/19 01:42:35;;;;;;;13.40;8.40;;;7.60;99.90;;;;;;4225055;28;20225;-79
2023/10/19 01:44:37;;;;;;;15.10;8.07;;;7.70;99.90;;;;;;4230171;28;20260;-80
2023/10/19 01:46:39;;;;;;;14.87;8.33;;;7.70;99.90;;;;;;4228428;28;20617;-79
2023/10/19 01:48:42;;;;;;;16.93;9.47;;;7.70;99.90;;;;;;4223875;28;20233;-79
2023/10/19 01:50:43;;;;;;;11.67;7.70;;;7.70;99.90;;;;;;4225444;28;20221;-80
2023/10/19 01:52:45;;;;;;;11.73;7.90;;;7.70;99.90;;;;;;4232506;28;20216;-79
2023/10/19 01:54:46;;;;;;;13.70;8.30;;;7.70;99.90;;;;;;4226110;28;20201;-80
2023/10/19 01:56:54;;;;;;;15.30;8.80;;;7.70;99.90;;;;;;4225772;28;20266;-80
2023/10/19 01:58:57;;;;;;;12.77;8.37;;;7.70;99.90;;;;;;4217978;28;20568;-80
2023/10/19 02:01:00;;;;;;;13.47;8.50;;;7.70;99.90;;;;;;4222880;28;20280;-79
2023/10/19 02:03:07;;;;;;;14.33;8.30;;;7.70;99.90;;;;;;4227210;28;20212;-80
2023/10/19 02:05:14;;;;;;;14.00;8.87;;;7.70;99.90;;;;;;4227524;28;20556;-80
2023/10/19 02:07:17;;;;;;;14.10;8.47;;;7.70;99.90;;;;;;4227362;28;20205;-80
2023/10/19 02:09:23;;;;;;;13.70;8.37;;;7.70;99.90;;;;;;4227133;28;20201;-79
2023/10/19 02:11:25;;;;;;;13.13;7.90;;;7.70;99.90;;;;;;4231210;28;20700;-79
2023/10/19 02:13:28;;;;;;;13.33;8.07;;;7.80;99.90;;;;;;4229451;28;20207;-80
2023/10/19 02:15:29;;;;;;;13.50;8.50;;;7.70;99.90;;;;;;4230229;27;20204;-79
2023/10/19 02:17:31;;;;;;;14.90;8.97;;;7.70;99.90;;;;;;4226870;27;20212;-79
2023/10/19 02:19:32;;;;;;;13.03;7.90;;;7.80;99.90;;;;;;4230546;28;20218;-78
2023/10/19 02:21:39;;;;;;;16.13;9.23;;;7.80;99.90;;;;;;4231263;27;20264;-78
2023/10/19 02:23:41;;;;;;;15.90;9.03;;;7.80;99.90;;;;;;4226068;27;20297;-78
2023/10/19 02:25:43;;;;;;;15.83;9.40;;;7.80;99.90;;;;;;4224495;27;20592;-78
2023/10/19 02:27:45;;;;;;;14.87;8.67;;;7.70;99.90;;;;;;4223097;27;20207;-78
2023/10/19 02:29:50;;;;;;;15.50;9.67;;;7.70;99.90;;;;;;4223165;27;20244;-78
2023/10/19 02:31:52;;;;;;;13.77;8.30;;;7.70;99.90;;;;;;4225941;27;20252;-79
2023/10/19 02:33:59;;;;;;;15.97;9.50;;;7.70;99.90;;;;;;4226371;27;20220;-78
2023/10/19 02:36:00;;;;;;;14.83;8.77;;;7.70;99.90;;;;;;4230837;27;20202;-78
2023/10/19 02:38:04;;;;;;;14.97;9.17;;;7.70;99.90;;;;;;4223639;27;20208;-79
2023/10/19 02:40:12;;;;;;;16.40;8.90;;;7.70;99.90;;;;;;4223382;27;20300;-78
2023/10/19 02:42:14;;;;;;;15.27;8.93;;;7.60;99.90;;;;;;4224191;28;20213;-78
2023/10/19 02:44:19;;;;;;;13.53;8.50;;;7.60;99.90;;;;;;4223057;27;20677;-78
2023/10/19 02:46:23;;;;;;;14.77;8.70;;;7.60;99.90;;;;;;4227955;28;20197;-79
2023/10/19 02:48:25;;;;;;;18.47;9.00;;;7.60;99.90;;;;;;4225459;28;20283;-80
2023/10/19 02:50:26;;;;;;;13.20;8.23;;;7.60;99.90;;;;;;4227806;28;20562;-79
2023/10/19 02:52:32;;;;;;;14.30;8.60;;;7.60;99.90;;;;;;4226012;27;20259;-80
2023/10/19 02:54:33;;;;;;;13.80;8.50;;;7.60;99.90;;;;;;4224527;27;20742;-79
2023/10/19 02:56:36;;;;;;;13.37;8.77;;;7.60;99.90;;;;;;4225149;27;20200;-79
2023/10/19 02:58:42;;;;;;;14.60;9.10;;;7.60;99.90;;;;;;4226070;27;20224;-78
2023/10/19 03:00:45;;;;;;;15.70;9.20;;;7.60;99.90;;;;;;4230675;28;20257;-79
2023/10/19 03:02:49;;;;;;;16.60;9.17;;;7.50;99.90;;;;;;4231066;27;20225;-79
2023/10/19 03:04:54;;;;;;;17.70;9.90;;;7.50;99.90;;;;;;4225399;27;20205;-79
2023/10/19 03:06:56;;;;;;;17.37;9.43;;;7.50;99.90;;;;;;4229917;27;20208;-78
2023/10/19 03:09:00;;;;;;;16.80;9.50;;;7.60;99.90;;;;;;4227515;27;20201;-80
2023/10/19 03:11:03;;;;;;;14.37;8.73;;;7.50;99.90;;;;;;4227179;28;20288;-78
2023/10/19 03:13:06;;;;;;;12.23;8.20;;;7.50;99.90;;;;;;4220727;28;20200;-79
2023/10/19 03:15:08;;;;;;;14.90;9.17;;;7.50;99.90;;;;;;4226295;27;20219;-79
2023/10/19 03:17:10;;;;;;;15.57;9.37;;;7.50;99.90;;;;;;4223447;27;20712;-79
2023/10/19 03:19:13;;;;;;;16.27;9.77;;;7.50;99.90;;;;;;4230207;27;20573;-79
2023/10/19 03:21:16;;;;;;;16.20;9.37;;;7.50;99.90;;;;;;4228662;27;20200;-77
2023/10/19 03:23:17;;;;;;;17.10;10.07;;;7.40;99.90;;;;;;4223593;28;20237;-78
2023/10/19 03:27:38;;;;;;;19.47;9.30;;;7.40;99.90;;;;;;4226351;27;20264;-78
2023/10/19 03:29:40;;;;;;;17.83;10.33;;;7.40;99.90;;;;;;4228643;28;20235;-79
2023/10/19 03:31:44;;;;;;;15.73;10.17;;;7.40;99.90;;;;;;4225204;27;20229;-78
2023/10/19 03:33:49;;;;;;;19.33;10.40;;;7.40;99.90;;;;;;4221300;28;21002;-79
2023/10/19 03:35:53;;;;;;;24.27;11.83;;;7.40;99.90;;;;;;4230616;27;20201;-79
2023/10/19 03:37:58;;;;;;;16.30;9.30;;;7.40;99.90;;;;;;4228899;28;20200;-78
2023/10/19 03:40:06;;;;;;;19.90;11.20;;;7.40;99.90;;;;;;4228153;28;20200;-80
2023/10/19 03:42:09;;;;;;;20.37;10.57;;;7.40;99.90;;;;;;4227370;27;20219;-79
2023/10/19 03:44:18;;;;;;;17.07;10.60;;;7.40;99.90;;;;;;4228887;27;20208;-79
2023/10/19 03:46:28;;;;;;;20.53;11.20;;;7.30;99.90;;;;;;4221771;28;20250;-79
2023/10/19 03:48:35;;;;;;;17.90;10.93;;;7.30;99.90;;;;;;4227269;27;20208;-78
2023/10/19 03:50:38;;;;;;;19.40;10.90;;;7.30;99.90;;;;;;4231197;28;20226;-78
2023/10/19 03:52:42;;;;;;;17.97;11.10;;;7.30;99.90;;;;;;4232886;27;20487;-78
2023/10/19 03:54:44;;;;;;;17.73;10.90;;;7.30;99.90;;;;;;4232946;28;20459;-78
2023/10/19 03:56:47;;;;;;;18.90;11.67;;;7.30;99.90;;;;;;4230121;28;20193;-78
2023/10/19 03:58:50;;;;;;;19.03;11.03;;;7.30;99.90;;;;;;4236249;27;20537;-78
2023/10/19 04:00:52;;;;;;;23.73;12.50;;;7.30;99.90;;;;;;4232201;27;20200;-79
2023/10/19 04:02:55;;;;;;;18.30;10.73;;;7.30;99.90;;;;;;4227999;27;20887;-79
2023/10/19 04:04:57;;;;;;;18.60;11.27;;;7.30;99.90;;;;;;4230232;28;20948;-80
2023/10/19 04:06:59;;;;;;;21.10;10.73;;;7.30;99.90;;;;;;4234904;27;20228;-79
2023/10/19 04:09:04;;;;;;;21.20;12.07;;;7.30;99.90;;;;;;4237191;27;20615;-80
2023/10/19 04:11:08;;;;;;;19.17;11.33;;;7.30;99.90;;;;;;4235220;27;20221;-78
2023/10/19 04:13:10;;;;;;;19.17;11.50;;;7.30;99.90;;;;;;4233146;27;20465;-79
2023/10/19 04:15:15;;;;;;;20.00;12.20;;;7.30;99.90;;;;;;4232805;27;20506;-79
2023/10/19 04:17:21;;;;;;;23.87;12.63;;;7.30;99.90;;;;;;4230860;27;20509;-78
2023/10/19 04:19:23;;;;;;;21.13;12.20;;;7.30;99.90;;;;;;4227684;27;20658;-79
2023/10/19 04:21:25;;;;;;;21.80;12.33;;;7.30;99.90;;;;;;4220612;28;20224;-79
2023/10/19 04:23:27;;;;;;;20.70;12.43;;;7.30;99.90;;;;;;4224617;28;20201;-78
2023/10/19 04:25:32;;;;;;;20.80;12.47;;;7.30;99.90;;;;;;4228224;27;20232;-79
2023/10/19 04:27:35;;;;;;;22.20;12.10;;;7.30;99.90;;;;;;4223424;27;20863;-79
2023/10/19 04:29:39;;;;;;;24.53;13.33;;;7.30;99.90;;;;;;4226222;27;20215;-78
2023/10/19 04:31:49;;;;;;;24.17;13.93;;;7.30;99.90;;;;;;4223656;28;20224;-79
2023/10/19 04:33:51;;;;;;;24.27;12.43;;;7.30;99.90;;;;;;4222063;28;20655;-80
2023/10/19 04:35:55;;;;;;;21.43;12.40;;;7.30;99.90;;;;;;4225581;27;20209;-80
2023/10/19 04:37:57;;;;;;;21.77;12.43;;;7.30;99.90;;;;;;4229305;27;20197;-80
2023/10/19 04:40:00;;;;;;;21.70;12.30;;;7.30;99.90;;;;;;4230287;27;20212;-80
2023/10/19 04:42:04;;;;;;;22.37;12.40;;;7.30;99.90;;;;;;4225970;28;20217;-80
2023/10/19 04:44:08;;;;;;;21.70;12.70;;;7.30;99.90;;;;;;4224128;28;20235;-80
2023/10/19 04:46:12;;;;;;;23.30;12.20;;;7.20;99.90;;;;;;4223725;27;20746;-81
2023/10/19 04:48:14;;;;;;;23.33;12.60;;;7.30;99.90;;;;;;4232784;27;20215;-81
2023/10/19 04:50:16;;;;;;;24.60;13.63;;;7.20;99.90;;;;;;4226998;27;20292;-81
2023/10/19 04:52:18;;;;;;;25.37;12.77;;;7.30;99.90;;;;;;4227258;28;20273;-80
2023/10/19 04:54:20;;;;;;;22.83;12.87;;;7.20;99.90;;;;;;4228691;28;20243;-81
2023/10/19 04:56:22;;;;;;;24.40;13.07;;;7.20;99.90;;;;;;4232249;27;20378;-80
2023/10/19 04:58:24;;;;;;;23.10;12.23;;;7.20;99.90;;;;;;4227007;27;20365;-81
2023/10/19 05:00:27;;;;;;;23.33;13.07;;;7.20;99.90;;;;;;4223935;28;20197;-80
2023/10/19 05:02:29;;;;;;;25.53;13.37;;;7.20;99.90;;;;;;4229067;28;20458;-81
2023/10/19 05:04:32;;;;;;;26.27;14.00;;;6.90;99.90;;;;;;4231446;27;20499;-81
2023/10/19 05:06:33;;;;;;;26.10;12.60;;;7.30;99.90;;;;;;4230319;27;20218;-80
2023/10/19 05:08:36;;;;;;;25.37;13.77;;;7.20;99.90;;;;;;4227645;28;20450;-79
2023/10/19 05:10:37;;;;;;;25.83;13.47;;;7.20;99.90;;;;;;4229237;28;20303;-81
2023/10/19 05:12:39;;;;;;;24.50;13.13;;;7.10;99.90;;;;;;4228566;28;20722;-82
2023/10/19 05:14:43;;;;;;;25.13;13.87;;;7.20;99.90;;;;;;4229057;27;20272;-78
2023/10/19 05:16:48;;;;;;;26.60;13.90;;;7.20;99.90;;;;;;4230836;27;20675;-81
2023/10/19 05:18:50;;;;;;;27.73;14.30;;;7.20;99.90;;;;;;4236588;27;20207;-81
2023/10/19 05:20:55;;;;;;;24.97;12.93;;;7.20;99.90;;;;;;4227773;28;20438;-79
2023/10/19 05:22:57;;;;;;;24.17;12.73;;;7.20;99.90;;;;;;4225564;28;20227;-81
2023/10/19 05:25:01;;;;;;;27.17;14.33;;;7.20;99.90;;;;;;4223943;27;20545;-84
2023/10/19 05:27:03;;;;;;;26.63;14.23;;;7.20;99.90;;;;;;4223920;28;20204;-80
2023/10/19 05:29:05;;;;;;;26.20;14.47;;;7.20;99.90;;;;;;4211314;28;20656;-80
2023/10/19 05:31:08;;;;;;;25.67;13.77;;;7.20;99.90;;;;;;4225513;27;20245;-81
2023/10/19 05:33:10;;;;;;;28.80;14.23;;;7.20;99.90;;;;;;4227286;28;20218;-82
2023/10/19 05:35:13;;;;;;;31.20;14.07;;;7.20;99.90;;;;;;4224759;28;20261;-85
2023/10/19 05:37:16;;;;;;;26.87;14.03;;;7.20;99.90;;;;;;4222273;28;20491;-80
2023/10/19 05:39:18;;;;;;;26.33;14.20;;;7.20;99.90;;;;;;4226373;27;20211;-79
2023/10/19 05:41:21;;;;;;;23.47;13.70;;;7.20;99.90;;;;;;4224271;28;20247;-79
2023/10/19 05:43:23;;;;;;;26.27;14.80;;;7.20;99.90;;;;;;4231332;27;20204;-79
2023/10/19 05:45:26;;;;;;;26.23;13.97;;;7.20;99.90;;;;;;4234518;27;20212;-78
2023/10/19 05:47:29;;;;;;;23.83;13.07;;;7.20;99.90;;;;;;4228119;27;20226;-79
2023/10/19 05:49:33;;;;;;;24.50;13.83;;;7.20;99.90;;;;;;4228186;27;20205;-79
2023/10/19 05:51:35;;;;;;;23.53;13.60;;;7.10;99.90;;;;;;4222987;27;20225;-79
2023/10/19 05:53:38;;;;;;;26.57;13.63;;;7.20;99.90;;;;;;4227579;27;20212;-79
2023/10/19 05:55:40;;;;;;;25.37;13.80;;;7.20;99.90;;;;;;4226320;28;20881;-79
2023/10/19 05:57:42;;;;;;;28.57;14.87;;;7.20;99.90;;;;;;4229529;28;20548;-79
2023/10/19 05:59:43;;;;;;;25.17;14.30;;;7.20;99.90;;;;;;4246978;27;20208;-80
2023/10/19 06:01:46;;;;;;;24.40;13.97;;;7.20;99.90;;;;;;4227785;27;20258;-80
2023/10/19 06:03:50;;;;;;;25.80;13.40;;;7.20;99.90;;;;;;4228078;27;20253;-79
2023/10/19 06:05:54;;;;;;;29.37;14.97;;;7.20;99.90;;;;;;4225725;28;20481;-79
2023/10/19 06:07:56;;;;;;;27.27;14.43;;;7.20;99.90;;;;;;4227754;27;20262;-79
2023/10/19 06:10:00;;;;;;;24.90;13.97;;;7.20;99.90;;;;;;4233171;27;20205;-79
2023/10/19 06:12:03;;;;;;;29.90;14.47;;;7.20;99.90;;;;;;4229975;28;20231;-79
2023/10/19 06:14:07;;;;;;;29.27;15.63;;;7.20;99.90;;;;;;4232560;27;20454;-79
2023/10/19 06:16:09;;;;;;;27.17;14.20;;;7.20;99.90;;;;;;4229645;27;20209;-80
2023/10/19 06:18:11;;;;;;;29.83;16.00;;;7.20;99.90;;;;;;4235742;27;20226;-79
2023/10/19 06:20:23;;;;;;;23.53;13.50;;;7.20;99.90;;;;;;4235565;27;20287;-79
2023/10/19 06:22:25;;;;;;;26.13;14.33;;;7.20;99.90;;;;;;4228418;27;20310;-79
2023/10/19 06:24:27;;;;;;;28.93;14.80;;;7.20;99.90;;;;;;4227321;28;20200;-79
2023/10/19 06:26:29;;;;;;;30.53;15.43;;;7.20;99.90;;;;;;4228819;27;20205;-79
2023/10/19 06:28:34;;;;;;;25.87;13.47;;;7.30;99.90;;;;;;4229661;28;20208;-79
2023/10/19 06:30:36;;;;;;;27.47;14.40;;;7.20;99.90;;;;;;4229873;27;20459;-79
2023/10/19 06:32:38;;;;;;;25.80;13.50;;;7.20;99.90;;;;;;4224505;28;20474;-76
2023/10/19 06:34:40;;;;;;;29.23;15.33;;;7.30;99.90;;;;;;4225830;28;20189;-80
2023/10/19 06:36:43;;;;;;;27.60;14.57;;;7.20;99.90;;;;;;4224509;28;20451;-82
2023/10/19 06:38:46;;;;;;;28.30;15.67;;;7.30;99.90;;;;;;4226548;27;20258;-81
2023/10/19 06:40:48;;;;;;;30.83;15.83;;;7.30;99.90;;;;;;4227515;27;20263;-81
2023/10/19 06:42:50;;;;;;;30.40;15.43;;;7.30;99.90;;;;;;4223984;28;20220;-80
2023/10/19 06:44:55;;;;;;;31.53;15.00;;;7.30;99.90;;;;;;4228357;27;20207;-81
2023/10/19 06:46:57;;;;;;;28.83;15.17;;;7.30;99.90;;;;;;4224921;28;20236;-80
2023/10/19 06:49:00;;;;;;;30.83;15.87;;;7.30;99.90;;;;;;4231985;28;20209;-81
2023/10/19 06:51:02;;;;;;;25.60;14.30;;;7.40;99.90;;;;;;4229811;27;20217;-81
2023/10/19 06:53:05;;;;;;;32.57;16.67;;;7.30;99.90;;;;;;4232775;27;20270;-81
2023/10/19 06:55:13;;;;;;;27.70;14.77;;;7.30;99.90;;;;;;4225422;28;20458;-81
2023/10/19 06:57:15;;;;;;;34.23;16.80;;;7.40;99.90;;;;;;4230222;27;20543;-80
2023/10/19 06:59:17;;;;;;;28.53;14.90;;;7.40;99.90;;;;;;4229262;27;20666;-80
2023/10/19 07:01:22;;;;;;;29.47;15.33;;;7.40;99.90;;;;;;4230199;27;20266;-80
2023/10/19 07:03:25;;;;;;;30.00;16.40;;;7.40;99.90;;;;;;4229402;27;20941;-80
2023/10/19 07:05:29;;;;;;;26.77;15.33;;;7.50;99.90;;;;;;4229467;27;20471;-80
2023/10/19 07:07:31;;;;;;;27.87;15.27;;;7.40;99.90;;;;;;4227363;28;20438;-80
2023/10/19 07:09:36;;;;;;;28.93;15.30;;;7.50;99.90;;;;;;4228329;28;20458;-81
2023/10/19 07:11:38;;;;;;;31.10;16.27;;;7.50;99.90;;;;;;4230037;27;20220;-82
2023/10/19 07:13:40;;;;;;;29.87;16.10;;;7.50;99.90;;;;;;4231456;27;20212;-81
2023/10/19 07:15:42;;;;;;;30.07;16.73;;;7.50;99.90;;;;;;4235056;27;20200;-81
2023/10/19 07:17:44;;;;;;;29.93;16.43;;;7.50;99.90;;;;;;4232006;27;20216;-80
2023/10/19 07:19:48;;;;;;;28.30;16.13;;;7.50;99.90;;;;;;4235461;27;20209;-80
2023/10/19 07:21:57;;;;;;;39.27;17.80;;;7.60;99.90;;;;;;4224520;28;20247;-81
2023/10/19 07:24:01;;;;;;;31.80;16.00;;;7.60;99.90;;;;;;4230643;27;20203;-81
2023/10/19 07:26:05;;;;;;;33.70;17.10;;;7.60;99.90;;;;;;4229178;27;20472;-82
2023/10/19 07:28:07;;;;;;;34.03;17.80;;;7.60;99.90;;;;;;4226700;28;20283;-81
2023/10/19 07:30:10;;;;;;;33.90;17.67;;;7.60;99.90;;;;;;4228301;27;20973;-81
2023/10/19 07:32:13;;;;;;;33.47;17.10;;;7.60;99.90;;;;;;4224908;27;20488;-82
2023/10/19 07:34:16;;;;;;;29.23;16.00;;;7.60;99.90;;;;;;4227770;27;20216;-81
2023/10/19 07:36:18;;;;;;;30.73;17.00;;;7.70;99.90;;;;;;4227976;27;20722;-81
2023/10/19 07:38:21;;;;;;;34.00;17.80;;;8.00;99.90;;;;;;4230084;27;20746;-81
2023/10/19 07:40:24;;;;;;;34.53;17.33;;;7.70;99.90;;;;;;4226269;27;20271;-81
2023/10/19 07:42:27;;;;;;;33.83;17.43;;;7.70;99.90;;;;;;4229350;27;20228;-81
2023/10/19 07:44:30;;;;;;;34.63;17.63;;;7.80;99.90;;;;;;4238344;27;20205;-81
2023/10/19 07:46:32;;;;;;;38.67;19.20;;;7.80;99.90;;;;;;4229969;27;20231;-82
2023/10/19 07:48:34;;;;;;;34.67;17.87;;;7.80;99.90;;;;;;4234955;27;20256;-81
2023/10/19 07:50:37;;;;;;;38.93;18.97;;;7.90;99.90;;;;;;4224034;27;20212;-81
2023/10/19 07:52:39;;;;;;;36.40;18.47;;;7.90;99.90;;;;;;4225647;27;20226;-81
2023/10/19 07:54:41;;;;;;;35.37;18.40;;;7.90;99.90;;;;;;4227594;27;20196;-82
2023/10/19 07:56:43;;;;;;;32.10;16.87;;;7.90;99.90;;;;;;4227726;27;20238;-82
2023/10/19 07:58:47;;;;;;;33.57;17.13;;;7.90;99.90;;;;;;4227516;27;20188;-81
2023/10/19 08:00:49;;;;;;;34.63;18.40;;;8.00;99.90;;;;;;4228386;27;20205;-82
2023/10/19 08:02:51;;;;;;;31.97;16.43;;;8.00;99.90;;;;;;4225667;27;20218;-82
2023/10/19 08:04:53;;;;;;;33.63;18.17;;;8.00;99.90;;;;;;4225402;27;20742;-82
2023/10/19 08:06:55;;;;;;;33.83;18.30;;;8.20;99.90;;;;;;4226271;27;20204;-82
2023/10/19 08:08:57;;;;;;;36.93;18.83;;;8.10;99.90;;;;;;4233860;27;20271;-82
2023/10/19 08:11:00;;;;;;;38.43;19.27;;;8.10;99.90;;;;;;4229479;27;20215;-82
2023/10/19 08:13:02;;;;;;;39.33;19.63;;;8.20;99.90;;;;;;4224943;27;20206;-81
2023/10/19 08:15:07;;;;;;;34.43;18.00;;;8.20;99.90;;;;;;4224582;27;20258;-82
2023/10/19 08:17:09;;;;;;;33.20;17.13;;;8.20;99.90;;;;;;4225149;27;20218;-82
2023/10/19 08:19:12;;;;;;;35.80;17.90;;;8.30;99.90;;;;;;4229601;27;20277;-82
2023/10/19 08:21:14;;;;;;;35.27;18.10;;;8.40;99.90;;;;;;4225859;28;20232;-81
2023/10/19 08:23:23;;;;;;;30.17;16.67;;;8.40;99.90;;;;;;4225461;28;20254;-80
2023/10/19 08:25:27;;;;;;;33.37;17.80;;;8.40;99.90;;;;;;4225564;28;20616;-80
2023/10/19 08:27:29;;;;;;;29.20;15.40;;;8.40;99.90;;;;;;4226436;27;20201;-79
2023/10/19 08:29:30;;;;;;;29.63;16.57;;;8.50;99.90;;;;;;4229876;27;20211;-81
2023/10/19 08:31:35;;;;;;;27.77;14.97;;;8.50;99.90;;;;;;4232212;28;20222;-81
2023/10/19 08:33:38;;;;;;;29.83;16.17;;;8.50;99.90;;;;;;4234415;28;20209;-80
2023/10/19 08:35:40;;;;;;;26.13;14.37;;;8.60;99.90;;;;;;4235092;28;20201;-81
2023/10/19 08:37:44;;;;;;;26.20;14.47;;;8.60;99.90;;;;;;4237308;27;20220;-81
2023/10/19 08:39:46;;;;;;;29.20;15.30;;;8.60;99.90;;;;;;4238719;27;20209;-80
2023/10/19 08:41:53;;;;;;;29.53;16.30;;;8.70;99.90;;;;;;4230842;28;20223;-81
2023/10/19 08:43:56;;;;;;;26.93;14.53;;;8.70;99.90;;;;;;4227369;28;20206;-81
2023/10/19 08:45:59;;;;;;;28.43;14.80;;;8.70;99.90;;;;;;4228004;27;20208;-82
2023/10/19 08:48:02;;;;;;;28.83;14.87;;;8.80;99.90;;;;;;4239683;27;20240;-80
2023/10/19 08:50:05;;;;;;;29.73;14.40;;;8.80;99.90;;;;;;4234945;27;20270;-79
2023/10/19 08:52:08;;;;;;;31.23;15.20;;;8.80;99.90;;;;;;4231801;28;20230;-81
2023/10/19 08:54:12;;;;;;;30.93;15.70;;;8.90;99.90;;;;;;4232637;27;20239;-81
2023/10/19 08:56:16;;;;;;;29.93;15.93;;;8.90;99.90;;;;;;4227617;28;20503;-81
2023/10/19 08:58:19;;;;;;;27.07;14.93;;;9.00;99.90;;;;;;4225071;27;20207;-81
2023/10/19 09:00:24;;;;;;;30.43;17.00;;;9.00;99.90;;;;;;4228944;27;20210;-81
2023/10/19 09:02:27;;;;;;;29.13;16.43;;;9.10;99.90;;;;;;4223713;28;20226;-82
2023/10/19 09:04:33;;;;;;;29.03;15.70;;;9.10;99.90;;;;;;4229484;27;20203;-80
2023/10/19 09:06:41;;;;;;;28.53;15.40;;;9.20;99.90;;;;;;4226856;28;20214;-82
2023/10/19 09:08:46;;;;;;;27.57;15.87;;;9.20;99.90;;;;;;4223562;28;20250;-82
2023/10/19 09:10:51;;;;;;;28.87;17.00;;;9.30;99.90;;;;;;4224554;28;20218;-81
2023/10/19 09:13:01;;;;;;;28.70;16.60;;;9.40;99.90;;;;;;4223789;27;20851;-81
2023/10/19 09:15:04;;;;;;;26.17;15.47;;;9.40;99.90;;;;;;4223941;28;20289;-81
2023/10/19 09:17:07;;;;;;;28.27;16.10;;;9.50;99.90;;;;;;4221496;28;20215;-81
2023/10/19 09:19:09;;;;;;;28.40;15.40;;;9.50;99.90;;;;;;4230720;27;20224;-81
2023/10/19 09:21:12;;;;;;;25.03;14.57;;;9.60;99.90;;;;;;4228075;27;20210;-81
2023/10/19 09:23:13;;;;;;;28.77;15.37;;;9.60;99.90;;;;;;4224371;28;20212;-81
2023/10/19 09:25:15;;;;;;;26.47;15.73;;;9.60;99.90;;;;;;4227390;28;20663;-81
2023/10/19 09:27:18;;;;;;;33.17;17.43;;;9.70;99.90;;;;;;4221134;28;20207;-82
2023/10/19 09:29:20;;;;;;;26.67;15.33;;;9.70;99.90;;;;;;4221626;28;20616;-81
2023/10/19 09:31:24;;;;;;;27.50;15.17;;;9.70;99.90;;;;;;4225730;28;20229;-81
2023/10/19 09:33:27;;;;;;;28.27;15.17;;;9.80;99.90;;;;;;4231962;28;20203;-80
2023/10/19 09:35:31;;;;;;;26.13;15.87;;;9.80;99.90;;;;;;4227480;28;20259;-80
2023/10/19 09:37:35;;;;;;;27.40;15.47;;;9.90;99.90;;;;;;4233271;28;20604;-80
2023/10/19 09:39:37;;;;;;;26.57;15.93;;;10.00;99.90;;;;;;4233756;28;20232;-81
2023/10/19 09:41:40;;;;;;;26.73;15.47;;;10.00;99.90;;;;;;4234695;28;20223;-81
2023/10/19 09:43:45;;;;;;;30.17;17.23;;;10.00;99.90;;;;;;4234360;27;20307;-80
2023/10/19 09:45:51;;;;;;;26.67;16.17;;;10.10;99.90;;;;;;4224934;28;20212;-80
2023/10/19 09:47:56;;;;;;;31.40;17.43;;;10.20;99.90;;;;;;4226782;28;20215;-81
2023/10/19 09:49:58;;;;;;;25.47;15.93;;;10.30;99.90;;;;;;4225689;28;20302;-82
2023/10/19 09:52:00;;;;;;;24.73;15.17;;;10.40;99.90;;;;;;4227274;28;20254;-81
2023/10/19 09:54:11;;;;;;;26.37;15.10;;;10.50;99.90;;;;;;4228813;28;20230;-81
2023/10/19 09:56:19;;;;;;;28.23;14.97;;;10.70;99.90;;;;;;4228092;28;20204;-81
2023/10/19 09:58:25;;;;;;;24.83;14.23;;;10.80;99.90;;;;;;4227654;28;20199;-80
2023/10/19 10:00:31;;;;;;;24.30;13.83;;;10.80;99.90;;;;;;4227447;28;20212;-82
2023/10/19 10:02:33;;;;;;;26.47;15.37;;;10.90;99.90;;;;;;4232083;28;20212;-80
2023/10/19 10:04:35;;;;;;;24.93;15.10;;;11.10;99.90;;;;;;4229558;28;20247;-81
2023/10/19 10:06:59;;;;;;;25.43;15.60;;;11.10;99.90;;;;;;4229541;28;20728;-81
2023/10/19 10:09:04;;;;;;;24.63;15.10;;;11.20;99.90;;;;;;4229436;28;20212;-81
2023/10/19 10:11:26;;;;;;;25.43;15.23;;;11.30;99.90;;;;;;4229529;28;20234;-81
2023/10/19 10:13:40;;;;;;;21.50;14.37;;;11.30;99.90;;;;;;4230307;28;20216;-81
2023/10/19 10:15:49;;;;;;;23.40;14.53;;;11.40;99.90;;;;;;4227124;28;20228;-81
2023/10/19 10:17:54;;;;;;;22.83;13.80;;;11.50;99.90;;;;;;4225937;28;20223;-82
2023/10/19 10:20:27;;;;;;;23.43;14.73;;;11.50;99.90;;;;;;4225605;28;20193;-81
2023/10/19 10:22:31;;;;;;;21.37;13.67;;;11.60;99.90;;;;;;4223598;28;20223;-81
2023/10/19 10:24:33;;;;;;;21.70;13.77;;;11.70;99.90;;;;;;4232512;28;20200;-81
2023/10/19 10:26:59;;;;;;;22.90;14.73;;;11.70;99.90;;;;;;4234068;28;20208;-82
2023/10/19 10:29:14;;;;;;;22.23;14.50;;;11.70;99.90;;;;;;4229888;27;20216;-81
2023/10/19 10:31:21;;;;;;;21.63;14.30;;;11.80;99.90;;;;;;4229465;27;20228;-81
2023/10/19 10:33:37;;;;;;;25.30;15.47;;;11.80;99.90;;;;;;4229374;27;20265;-80
2023/10/19 10:36:00;;;;;;;21.47;14.00;;;11.90;99.90;;;;;;4226645;28;20193;-82
2023/10/19 10:38:05;;;;;;;20.47;13.63;;;11.90;99.90;;;;;;4223702;27;20682;-82
2023/10/19 10:40:08;;;;;;;22.53;14.70;;;12.00;99.90;;;;;;4226005;27;20212;-82
2023/10/19 10:42:11;;;;;;;23.77;14.97;;;11.90;99.90;;;;;;4227709;27;20245;-81